sensor_id;sensor_type;location;lat;lon;timestamp;pressure;altitude;pressure_sealevel;temperature;humidity
53908;BME280;40469;47.998;7.794;2022-12-22T00:02:28;98583.03;;;11.03;100.00
53908;BME280;40469;47.998;7.794;2022-12-22T00:05:17;98570.59;;;11.16;100.00
53908;BME280;40469;47.998;7.794;2022-12-22T00:08:01;98571.56;;;11.12;100.00
53908;BME280;40469;47.998;7.794;2022-12-22T00:10:46;98558.50;;;11.12;100.00
53908;BME280;40469;47.998;7.794;2022-12-22T00:13:31;98559.13;;;11.25;100.00
53908;BME280;40469;47.998;7.794;2022-12-22T00:16:15;98564.34;;;11.25;100.00
53908;BME280;40469;47.998;7.794;2022-12-22T00:18:58;98569.59;;;11.23;100.00
53908;BME280;40469;47.998;7.794;2022-12-22T00:21:42;98561.78;;;11.22;100.00
53908;BME280;40469;47.998;7.794;2022-12-22T00:24:26;98558.63;;;11.03;100.00
53908;BME280;40469;47.998;7.794;2022-12-22T00:27:14;98549.81;;;10.60;100.00
53908;BME280;40469;47.998;7.794;2022-12-22T00:29:59;98550.25;;;10.32;100.00
53908;BME280;40469;47.998;7.794;2022-12-22T00:32:43;98547.94;;;10.11;100.00
53908;BME280;40469;47.998;7.794;2022-12-22T00:35:27;98534.00;;;10.12;100.00
53908;BME280;40469;47.998;7.794;2022-12-22T00:38:17;98538.31;;;10.14;100.00
53908;BME280;40469;47.998;7.794;2022-12-22T00:41:01;98525.97;;;10.27;100.00
53908;BME280;40469;47.998;7.794;2022-12-22T00:43:45;98533.72;;;10.32;100.00
53908;BME280;40469;47.998;7.794;2022-12-22T00:46:30;98521.69;;;10.20;100.00
53908;BME280;40469;47.998;7.794;2022-12-22T00:49:16;98533.56;;;10.42;100.00
53908;BME280;40469;47.998;7.794;2022-12-22T00:52:00;98523.88;;;10.51;100.00
53908;BME280;40469;47.998;7.794;2022-12-22T00:54:44;98521.22;;;10.54;100.00
53908;BME280;40469;47.998;7.794;2022-12-22T00:57:29;98531.56;;;10.58;100.00
53908;BME280;40469;47.998;7.794;2022-12-22T01:00:17;98519.28;;;10.63;100.00
53908;BME280;40469;47.998;7.794;2022-12-22T01:03:02;98530.47;;;10.72;100.00
53908;BME280;40469;47.998;7.794;2022-12-22T01:05:47;98529.41;;;10.84;100.00
53908;BME280;40469;47.998;7.794;2022-12-22T01:08:32;98534.53;;;10.87;100.00
53908;BME280;40469;47.998;7.794;2022-12-22T01:11:16;98531.06;;;10.88;100.00
53908;BME280;40469;47.998;7.794;2022-12-22T01:14:04;98548.50;;;10.86;100.00
53908;BME280;40469;47.998;7.794;2022-12-22T01:16:48;98538.97;;;10.83;100.00
53908;BME280;40469;47.998;7.794;2022-12-22T01:19:32;98542.34;;;10.88;100.00
53908;BME280;40469;47.998;7.794;2022-12-22T01:22:17;98560.63;;;10.90;100.00
53908;BME280;40469;47.998;7.794;2022-12-22T01:25:10;98545.00;;;10.87;100.00
53908;BME280;40469;47.998;7.794;2022-12-22T01:27:55;98559.75;;;10.89;100.00
53908;BME280;40469;47.998;7.794;2022-12-22T01:30:39;98551.03;;;10.90;100.00
53908;BME280;40469;47.998;7.794;2022-12-22T01:33:23;98558.81;;;10.93;100.00
53908;BME280;40469;47.998;7.794;2022-12-22T01:36:07;98564.03;;;10.93;100.00
53908;BME280;40469;47.998;7.794;2022-12-22T01:38:51;98563.13;;;10.96;100.00
53908;BME280;40469;47.998;7.794;2022-12-22T01:41:35;98567.56;;;10.91;100.00
53908;BME280;40469;47.998;7.794;2022-12-22T01:44:19;98565.75;;;10.96;100.00
53908;BME280;40469;47.998;7.794;2022-12-22T01:50:22;98557.50;;;11.17;100.00
53908;BME280;40469;47.998;7.794;2022-12-22T01:53:10;98567.03;;;11.20;100.00
53908;BME280;40469;47.998;7.794;2022-12-22T01:55:56;98566.13;;;11.23;100.00
53908;BME280;40469;47.998;7.794;2022-12-22T01:58:44;98567.75;;;11.28;100.00
53908;BME280;40469;47.998;7.794;2022-12-22T02:01:29;98556.47;;;11.26;100.00
53908;BME280;40469;47.998;7.794;2022-12-22T02:04:15;98564.09;;;11.38;100.00
53908;BME280;40469;47.998;7.794;2022-12-22T02:07:05;98562.88;;;11.55;100.00
53908;BME280;40469;47.998;7.794;2022-12-22T02:17:12;98534.19;;;11.50;100.00
53908;BME280;40469;47.998;7.794;2022-12-22T02:20:06;98525.56;;;11.47;100.00
53908;BME280;40469;47.998;7.794;2022-12-22T02:25:55;98511.38;;;11.58;100.00
53908;BME280;40469;47.998;7.794;2022-12-22T02:28:43;98500.81;;;11.65;100.00
53908;BME280;40469;47.998;7.794;2022-12-22T02:31:34;98498.88;;;11.71;100.00
53908;BME280;40469;47.998;7.794;2022-12-22T02:34:19;98488.31;;;11.77;100.00
53908;BME280;40469;47.998;7.794;2022-12-22T02:37:15;98482.00;;;11.86;100.00
53908;BME280;40469;47.998;7.794;2022-12-22T02:43:21;98486.25;;;11.93;100.00
53908;BME280;40469;47.998;7.794;2022-12-22T02:46:32;98475.78;;;11.93;100.00
53908;BME280;40469;47.998;7.794;2022-12-22T02:49:21;98466.13;;;11.95;100.00
53908;BME280;40469;47.998;7.794;2022-12-22T02:52:14;98459.91;;;12.00;100.00
53908;BME280;40469;47.998;7.794;2022-12-22T02:55:00;98467.50;;;12.10;100.00
53908;BME280;40469;47.998;7.794;2022-12-22T02:57:44;98442.03;;;12.19;100.00
53908;BME280;40469;47.998;7.794;2022-12-22T03:00:28;98460.25;;;12.23;100.00
53908;BME280;40469;47.998;7.794;2022-12-22T03:03:12;98465.31;;;12.29;100.00
53908;BME280;40469;47.998;7.794;2022-12-22T03:05:56;98444.28;;;12.32;100.00
53908;BME280;40469;47.998;7.794;2022-12-22T03:08:40;98447.72;;;12.35;100.00
53908;BME280;40469;47.998;7.794;2022-12-22T03:11:24;98472.94;;;12.39;100.00
53908;BME280;40469;47.998;7.794;2022-12-22T03:14:07;98446.91;;;12.32;100.00
53908;BME280;40469;47.998;7.794;2022-12-22T03:16:51;98445.00;;;12.39;100.00
53908;BME280;40469;47.998;7.794;2022-12-22T03:19:35;98446.75;;;12.39;100.00
53908;BME280;40469;47.998;7.794;2022-12-22T03:22:19;98437.97;;;12.41;100.00
53908;BME280;40469;47.998;7.794;2022-12-22T03:25:03;98434.50;;;12.41;100.00
53908;BME280;40469;47.998;7.794;2022-12-22T03:27:48;98435.44;;;12.38;100.00
53908;BME280;40469;47.998;7.794;2022-12-22T03:30:13;98428.25;;;12.46;100.00
53908;BME280;40469;47.998;7.794;2022-12-22T03:32:38;98423.84;;;12.47;100.00
53908;BME280;40469;47.998;7.794;2022-12-22T03:35:04;98416.81;;;12.49;100.00
53908;BME280;40469;47.998;7.794;2022-12-22T03:37:29;98423.84;;;12.47;100.00
53908;BME280;40469;47.998;7.794;2022-12-22T03:39:55;98436.13;;;12.45;100.00
53908;BME280;40469;47.998;7.794;2022-12-22T03:42:20;98432.56;;;12.47;100.00
53908;BME280;40469;47.998;7.794;2022-12-22T03:45:04;98428.25;;;12.46;100.00
53908;BME280;40469;47.998;7.794;2022-12-22T03:47:48;98441.50;;;12.39;100.00
53908;BME280;40469;47.998;7.794;2022-12-22T03:50:14;98456.25;;;12.43;100.00
53908;BME280;40469;47.998;7.794;2022-12-22T03:52:39;98450.22;;;12.41;100.00
53908;BME280;40469;47.998;7.794;2022-12-22T03:55:05;98431.09;;;12.37;100.00
53908;BME280;40469;47.998;7.794;2022-12-22T03:57:30;98446.75;;;12.39;100.00
53908;BME280;40469;47.998;7.794;2022-12-22T03:59:55;98433.75;;;12.36;100.00
53908;BME280;40469;47.998;7.794;2022-12-22T04:02:21;98442.38;;;12.39;100.00
53908;BME280;40469;47.998;7.794;2022-12-22T04:04:46;98441.50;;;12.39;100.00
53908;BME280;40469;47.998;7.794;2022-12-22T04:07:11;98439.00;;;12.36;100.00
53908;BME280;40469;47.998;7.794;2022-12-22T04:09:37;98421.63;;;12.31;100.00
53908;BME280;40469;47.998;7.794;2022-12-22T04:12:22;98439.09;;;12.31;100.00
53908;BME280;40469;47.998;7.794;2022-12-22T04:15:06;98441.00;;;12.24;100.00
53908;BME280;40469;47.998;7.794;2022-12-22T04:17:32;98444.38;;;12.29;100.00
53908;BME280;40469;47.998;7.794;2022-12-22T04:19:57;98442.00;;;12.20;100.00
53908;BME280;40469;47.998;7.794;2022-12-22T04:22:22;98447.25;;;12.19;100.00
53908;BME280;40469;47.998;7.794;2022-12-22T04:24:47;98448.81;;;12.26;100.00
53908;BME280;40469;47.998;7.794;2022-12-22T04:27:13;98471.25;;;12.36;100.00
53908;BME280;40469;47.998;7.794;2022-12-22T04:29:38;98449.53;;;12.32;100.00
53908;BME280;40469;47.998;7.794;2022-12-22T04:32:03;98464.25;;;12.37;100.00
53908;BME280;40469;47.998;7.794;2022-12-22T04:34:29;98445.88;;;12.40;100.00
53908;BME280;40469;47.998;7.794;2022-12-22T04:36:54;98449.31;;;12.40;100.00
53908;BME280;40469;47.998;7.794;2022-12-22T04:39:19;98467.69;;;12.39;100.00
53908;BME280;40469;47.998;7.794;2022-12-22T04:41:45;98452.75;;;12.42;100.00
53908;BME280;40469;47.998;7.794;2022-12-22T04:44:10;98451.13;;;12.38;100.00
53908;BME280;40469;47.998;7.794;2022-12-22T04:46:35;98440.66;;;12.38;100.00
53908;BME280;40469;47.998;7.794;2022-12-22T04:49:01;98457.06;;;12.45;100.00
53908;BME280;40469;47.998;7.794;2022-12-22T04:51:27;98450.28;;;12.38;100.00
53908;BME280;40469;47.998;7.794;2022-12-22T04:53:52;98451.13;;;12.38;100.00
53908;BME280;40469;47.998;7.794;2022-12-22T04:56:18;98463.31;;;12.41;100.00
53908;BME280;40469;47.998;7.794;2022-12-22T04:58:43;98464.16;;;12.41;100.00
53908;BME280;40469;47.998;7.794;2022-12-22T05:01:11;98450.34;;;12.35;100.00
53908;BME280;40469;47.998;7.794;2022-12-22T05:03:37;98443.47;;;12.30;100.00
53908;BME280;40469;47.998;7.794;2022-12-22T05:06:03;98444.25;;;12.34;100.00
53908;BME280;40469;47.998;7.794;2022-12-22T05:08:28;98438.19;;;12.33;100.00
53908;BME280;40469;47.998;7.794;2022-12-22T05:10:53;98452.22;;;12.29;100.00
53908;BME280;40469;47.998;7.794;2022-12-22T05:13:19;98433.00;;;12.30;100.00
53908;BME280;40469;47.998;7.794;2022-12-22T05:15:44;98448.66;;;12.33;100.00
53908;BME280;40469;47.998;7.794;2022-12-22T05:18:09;98432.09;;;12.31;100.00
53908;BME280;40469;47.998;7.794;2022-12-22T05:20:37;98440.91;;;12.29;100.00
53908;BME280;40469;47.998;7.794;2022-12-22T05:23:02;98437.38;;;12.30;100.00
53908;BME280;40469;47.998;7.794;2022-12-22T05:25:27;98433.97;;;12.26;100.00
53908;BME280;40469;47.998;7.794;2022-12-22T05:27:53;98434.91;;;12.24;100.00
53908;BME280;40469;47.998;7.794;2022-12-22T05:30:18;98466.34;;;12.22;100.00
53908;BME280;40469;47.998;7.794;2022-12-22T05:32:44;98419.50;;;12.13;100.00
53908;BME280;40469;47.998;7.794;2022-12-22T05:35:10;98433.59;;;12.07;100.00
53908;BME280;40469;47.998;7.794;2022-12-22T05:37:35;98443.91;;;12.12;100.00
53908;BME280;40469;47.998;7.794;2022-12-22T05:40:01;98431.22;;;11.97;100.00
53908;BME280;40469;47.998;7.794;2022-12-22T05:42:27;98447.59;;;12.05;100.00
53908;BME280;40469;47.998;7.794;2022-12-22T05:45:07;98459.06;;;11.99;100.00
53908;BME280;40469;47.998;7.794;2022-12-22T05:47:33;98453.88;;;11.98;100.00
53908;BME280;40469;47.998;7.794;2022-12-22T05:49:59;98442.56;;;11.97;100.00
53908;BME280;40469;47.998;7.794;2022-12-22T05:52:24;98459.84;;;12.03;100.00
53908;BME280;40469;47.998;7.794;2022-12-22T05:54:49;98453.81;;;12.01;100.00
53908;BME280;40469;47.998;7.794;2022-12-22T05:57:15;98431.00;;;12.06;100.00
53908;BME280;40469;47.998;7.794;2022-12-22T05:59:40;98425.88;;;12.01;100.00
53908;BME280;40469;47.998;7.794;2022-12-22T06:02:06;98450.34;;;12.00;100.00
53908;BME280;40469;47.998;7.794;2022-12-22T06:04:31;98454.69;;;12.00;100.00
53908;BME280;40469;47.998;7.794;2022-12-22T06:06:56;98451.94;;;12.06;100.00
53908;BME280;40469;47.998;7.794;2022-12-22T06:09:22;98434.50;;;12.05;100.00
53908;BME280;40469;47.998;7.794;2022-12-22T06:11:47;98454.63;;;12.03;100.00
53908;BME280;40469;47.998;7.794;2022-12-22T06:14:12;98461.63;;;12.02;100.00
53908;BME280;40469;47.998;7.794;2022-12-22T06:16:38;98440.03;;;11.92;100.00
53908;BME280;40469;47.998;7.794;2022-12-22T06:19:03;98445.25;;;11.92;100.00
53908;BME280;40469;47.998;7.794;2022-12-22T06:21:28;98416.47;;;11.94;100.00
53908;BME280;40469;47.998;7.794;2022-12-22T06:23:54;98432.13;;;11.95;100.00
53908;BME280;40469;47.998;7.794;2022-12-22T06:26:19;98419.09;;;11.92;100.00
53908;BME280;40469;47.998;7.794;2022-12-22T06:28:45;98435.63;;;11.94;100.00
53908;BME280;40469;47.998;7.794;2022-12-22T06:31:10;98449.59;;;11.95;100.00
53908;BME280;40469;47.998;7.794;2022-12-22T06:33:36;98423.53;;;11.90;100.00
53908;BME280;40469;47.998;7.794;2022-12-22T06:36:06;98420.00;;;11.93;100.00
53908;BME280;40469;47.998;7.794;2022-12-22T06:38:32;98423.28;;;12.00;100.00
53908;BME280;40469;47.998;7.794;2022-12-22T06:40:57;98420.78;;;11.97;100.00
53908;BME280;40469;47.998;7.794;2022-12-22T06:43:23;98406.84;;;11.94;100.00
53908;BME280;40469;47.998;7.794;2022-12-22T06:45:49;98406.91;;;11.93;100.00
53908;BME280;40469;47.998;7.794;2022-12-22T06:48:14;98400.81;;;11.89;100.00
53908;BME280;40469;47.998;7.794;2022-12-22T06:50:40;98403.41;;;11.92;100.00
53908;BME280;40469;47.998;7.794;2022-12-22T06:53:06;98392.13;;;11.89;100.00
53908;BME280;40469;47.998;7.794;2022-12-22T06:55:32;98390.22;;;11.97;100.00
53908;BME280;40469;47.998;7.794;2022-12-22T06:57:57;98391.06;;;11.98;100.00
53908;BME280;40469;47.998;7.794;2022-12-22T07:00:22;98389.44;;;11.93;100.00
53908;BME280;40469;47.998;7.794;2022-12-22T07:02:49;98407.72;;;11.95;100.00
53908;BME280;40469;47.998;7.794;2022-12-22T07:05:14;98411.19;;;11.95;100.00
53908;BME280;40469;47.998;7.794;2022-12-22T07:07:40;98419.03;;;11.95;100.00
53908;BME280;40469;47.998;7.794;2022-12-22T07:10:05;98401.72;;;11.90;100.00
53908;BME280;40469;47.998;7.794;2022-12-22T07:12:31;98415.72;;;11.86;100.00
53908;BME280;40469;47.998;7.794;2022-12-22T07:14:56;98422.78;;;11.82;100.00
53908;BME280;40469;47.998;7.794;2022-12-22T07:17:22;98443.94;;;11.73;100.00
53908;BME280;40469;47.998;7.794;2022-12-22T07:19:47;98433.50;;;11.71;100.00
53908;BME280;40469;47.998;7.794;2022-12-22T07:22:13;98463.34;;;11.63;100.00
53908;BME280;40469;47.998;7.794;2022-12-22T07:24:38;98442.44;;;11.61;100.00
53908;BME280;40469;47.998;7.794;2022-12-22T07:27:03;98451.97;;;11.65;100.00
53908;BME280;40469;47.998;7.794;2022-12-22T07:29:29;98449.41;;;11.62;100.00
53908;BME280;40469;47.998;7.794;2022-12-22T07:31:54;98464.38;;;11.55;100.00
53908;BME280;40469;47.998;7.794;2022-12-22T07:34:19;98450.47;;;11.53;100.00
53908;BME280;40469;47.998;7.794;2022-12-22T07:36:45;98465.38;;;11.50;100.00
53908;BME280;40469;47.998;7.794;2022-12-22T07:39:11;98457.44;;;11.54;100.00
53908;BME280;40469;47.998;7.794;2022-12-22T07:41:37;98448.06;;;11.44;100.00
53908;BME280;40469;47.998;7.794;2022-12-22T07:44:21;98452.53;;;11.39;100.00
53908;BME280;40469;47.998;7.794;2022-12-22T07:46:46;98445.81;;;11.27;100.00
53908;BME280;40469;47.998;7.794;2022-12-22T07:49:12;98438.94;;;11.23;100.00
53908;BME280;40469;47.998;7.794;2022-12-22T07:51:56;98449.56;;;11.15;100.00
53908;BME280;40469;47.998;7.794;2022-12-22T07:54:22;98464.28;;;11.18;100.00
53908;BME280;40469;47.998;7.794;2022-12-22T07:56:48;98475.63;;;11.17;100.00
53908;BME280;40469;47.998;7.794;2022-12-22T07:59:13;98490.44;;;11.18;100.00
53908;BME280;40469;47.998;7.794;2022-12-22T08:01:39;98494.81;;;11.16;100.00
53908;BME280;40469;47.998;7.794;2022-12-22T08:04:06;98502.72;;;11.13;100.00
53908;BME280;40469;47.998;7.794;2022-12-22T08:06:32;98507.16;;;11.09;100.00
53908;BME280;40469;47.998;7.794;2022-12-22T08:08:58;98526.38;;;11.05;100.00
53908;BME280;40469;47.998;7.794;2022-12-22T08:11:23;98502.81;;;11.08;100.00
53908;BME280;40469;47.998;7.794;2022-12-22T08:13:49;98494.22;;;11.03;100.00
53908;BME280;40469;47.998;7.794;2022-12-22T08:16:14;98502.00;;;11.05;100.00
53908;BME280;40469;47.998;7.794;2022-12-22T08:18:40;98486.56;;;10.92;100.00
53908;BME280;40469;47.998;7.794;2022-12-22T08:21:06;98485.69;;;10.93;100.00
53908;BME280;40469;47.998;7.794;2022-12-22T08:23:32;98477.28;;;10.76;100.00
53908;BME280;40469;47.998;7.794;2022-12-22T08:28:26;98478.91;;;10.83;100.00
53908;BME280;40469;47.998;7.794;2022-12-22T08:30:52;98500.69;;;10.84;100.00
53908;BME280;40469;47.998;7.794;2022-12-22T08:33:17;98478.88;;;10.85;100.00
53908;BME280;40469;47.998;7.794;2022-12-22T08:35:43;98511.81;;;10.92;100.00
53908;BME280;40469;47.998;7.794;2022-12-22T08:38:10;98506.38;;;11.04;100.00
53908;BME280;40469;47.998;7.794;2022-12-22T08:40:36;98497.63;;;11.07;100.00
53908;BME280;40469;47.998;7.794;2022-12-22T08:43:04;98517.53;;;11.12;100.00
53908;BME280;40469;47.998;7.794;2022-12-22T08:45:31;98520.94;;;11.17;100.00
53908;BME280;40469;47.998;7.794;2022-12-22T08:47:57;98514.75;;;11.20;100.00
53908;BME280;40469;47.998;7.794;2022-12-22T08:50:22;98516.53;;;11.19;100.00
53908;BME280;40469;47.998;7.794;2022-12-22T08:52:47;98520.81;;;11.22;100.00
53908;BME280;40469;47.998;7.794;2022-12-22T08:55:13;98538.16;;;11.28;100.00
53908;BME280;40469;47.998;7.794;2022-12-22T08:57:38;98536.34;;;11.31;100.00
53908;BME280;40469;47.998;7.794;2022-12-22T09:00:05;98552.03;;;11.31;100.00
53908;BME280;40469;47.998;7.794;2022-12-22T09:02:32;98569.41;;;11.32;100.00
53908;BME280;40469;47.998;7.794;2022-12-22T09:04:58;98579.09;;;11.27;100.00
53908;BME280;40469;47.998;7.794;2022-12-22T09:07:23;98597.34;;;11.29;100.00
53908;BME280;40469;47.998;7.794;2022-12-22T09:09:49;98593.94;;;11.25;100.00
53908;BME280;40469;47.998;7.794;2022-12-22T09:12:14;98614.19;;;11.14;100.00
53908;BME280;40469;47.998;7.794;2022-12-22T09:14:39;98619.59;;;11.03;100.00
53908;BME280;40469;47.998;7.794;2022-12-22T09:17:05;98607.38;;;11.05;100.00
53908;BME280;40469;47.998;7.794;2022-12-22T09:19:30;98605.84;;;10.92;100.00
53908;BME280;40469;47.998;7.794;2022-12-22T09:21:55;98619.72;;;10.95;100.00
53908;BME280;40469;47.998;7.794;2022-12-22T09:24:21;98621.53;;;10.92;100.00
53908;BME280;40469;47.998;7.794;2022-12-22T09:26:46;98612.06;;;10.85;100.00
53908;BME280;40469;47.998;7.794;2022-12-22T09:29:12;98619.88;;;10.86;100.00
53908;BME280;40469;47.998;7.794;2022-12-22T09:31:40;98618.94;;;10.89;100.00
53908;BME280;40469;47.998;7.794;2022-12-22T09:34:06;98622.50;;;10.86;100.00
53908;BME280;40469;47.998;7.794;2022-12-22T09:36:31;98625.03;;;10.91;100.00
53908;BME280;40469;47.998;7.794;2022-12-22T09:38:58;98629.34;;;10.92;100.00
53908;BME280;40469;47.998;7.794;2022-12-22T09:41:36;98629.28;;;10.98;100.00
53908;BME280;40469;47.998;7.794;2022-12-22T09:44:13;98626.63;;;10.99;100.00
53908;BME280;40469;47.998;7.794;2022-12-22T09:46:40;98637.94;;;11.00;100.00
53908;BME280;40469;47.998;7.794;2022-12-22T09:49:06;98623.88;;;11.07;100.00
53908;BME280;40469;47.998;7.794;2022-12-22T09:51:37;98622.91;;;11.13;100.00
53908;BME280;40469;47.998;7.794;2022-12-22T09:54:04;98618.38;;;11.23;100.00
53908;BME280;40469;47.998;7.794;2022-12-22T09:56:29;98633.09;;;11.28;100.00
53908;BME280;40469;47.998;7.794;2022-12-22T09:58:55;98625.13;;;11.34;100.00
53908;BME280;40469;47.998;7.794;2022-12-22T10:04:40;98624.97;;;11.44;100.00
53908;BME280;40469;47.998;7.794;2022-12-22T10:07:33;98634.47;;;11.48;100.00
53908;BME280;40469;47.998;7.794;2022-12-22T10:10:06;98622.22;;;11.50;100.00
53908;BME280;40469;47.998;7.794;2022-12-22T10:12:32;98635.22;;;11.54;100.00
53908;BME280;40469;47.998;7.794;2022-12-22T10:14:58;98628.06;;;11.63;100.00
53908;BME280;40469;47.998;7.794;2022-12-22T10:17:29;98633.28;;;11.64;100.00
53908;BME280;40469;47.998;7.794;2022-12-22T10:22:52;98640.13;;;11.70;100.00
53908;BME280;40469;47.998;7.794;2022-12-22T10:25:36;98647.94;;;11.73;100.00
53908;BME280;40469;47.998;7.794;2022-12-22T10:28:12;98634.88;;;11.71;100.00
53908;BME280;40469;47.998;7.794;2022-12-22T10:30:41;98627.84;;;11.75;100.00
53908;BME280;40469;47.998;7.794;2022-12-22T10:35:49;98637.34;;;11.81;100.00
53908;BME280;40469;47.998;7.794;2022-12-22T10:38:27;98639.19;;;11.75;100.00
53908;BME280;40469;47.998;7.794;2022-12-22T10:41:00;98638.25;;;11.78;100.00
53908;BME280;40469;47.998;7.794;2022-12-22T10:43:29;98638.06;;;11.87;100.00
53908;BME280;40469;47.998;7.794;2022-12-22T10:45:56;98642.41;;;11.88;100.00
53908;BME280;40469;47.998;7.794;2022-12-22T10:48:32;98619.69;;;11.92;100.00
53908;BME280;40469;47.998;7.794;2022-12-22T10:50:59;98626.69;;;11.91;100.00
53908;BME280;40469;47.998;7.794;2022-12-22T10:56:19;98623.09;;;11.95;100.00
53908;BME280;40469;47.998;7.794;2022-12-22T10:59:06;98617.91;;;11.94;100.00
53908;BME280;40469;47.998;7.794;2022-12-22T11:01:36;98617.91;;;11.94;100.00
53908;BME280;40469;47.998;7.794;2022-12-22T11:04:37;98622.47;;;11.83;100.00
53908;BME280;40469;47.998;7.794;2022-12-22T11:07:07;98628.75;;;11.74;100.00
53908;BME280;40469;47.998;7.794;2022-12-22T11:09:33;98613.91;;;11.74;100.00
53908;BME280;40469;47.998;7.794;2022-12-22T11:12:05;98621.75;;;11.74;100.00
53908;BME280;40469;47.998;7.794;2022-12-22T11:17:20;98612.59;;;11.52;100.00
53908;BME280;40469;47.998;7.794;2022-12-22T11:22:46;98617.06;;;11.47;100.00
53908;BME280;40469;47.998;7.794;2022-12-22T11:25:31;98599.53;;;11.52;100.00
53908;BME280;40469;47.998;7.794;2022-12-22T11:33:57;98618.97;;;11.38;100.00
53908;BME280;40469;47.998;7.794;2022-12-22T11:39:15;98620.78;;;11.35;100.00
53908;BME280;40469;47.998;7.794;2022-12-22T11:41:49;98631.25;;;11.35;100.00
53908;BME280;40469;47.998;7.794;2022-12-22T11:44:40;98632.81;;;11.44;100.00
53908;BME280;40469;47.998;7.794;2022-12-22T11:52:37;98640.09;;;11.73;100.00
53908;BME280;40469;47.998;7.794;2022-12-22T11:55:28;98650.47;;;11.77;100.00
53908;BME280;40469;47.998;7.794;2022-12-22T12:01:10;98641.44;;;11.94;100.00
53908;BME280;40469;47.998;7.794;2022-12-22T12:11:52;98640.44;;;12.00;100.00
53908;BME280;40469;47.998;7.794;2022-12-22T12:23:28;98627.22;;;12.07;100.00
53908;BME280;40469;47.998;7.794;2022-12-22T12:26:18;98629.75;;;12.10;100.00
53908;BME280;40469;47.998;7.794;2022-12-22T12:31:33;98650.16;;;11.94;100.00
53908;BME280;40469;47.998;7.794;2022-12-22T12:34:00;98657.13;;;11.95;100.00
53908;BME280;40469;47.998;7.794;2022-12-22T12:36:46;98653.78;;;11.86;100.00
53908;BME280;40469;47.998;7.794;2022-12-22T12:44:21;98660.09;;;11.75;100.00
53908;BME280;40469;47.998;7.794;2022-12-22T12:52:10;98659.59;;;11.56;100.00
53908;BME280;40469;47.998;7.794;2022-12-22T12:54:40;98655.19;;;11.58;100.00
53908;BME280;40469;47.998;7.794;2022-12-22T12:57:21;98650.09;;;11.52;100.00
53908;BME280;40469;47.998;7.794;2022-12-22T12:59:47;98659.06;;;11.37;100.00
53908;BME280;40469;47.998;7.794;2022-12-22T13:08:14;98656.72;;;11.20;100.00
53908;BME280;40469;47.998;7.794;2022-12-22T13:23:31;98653.03;;;11.32;100.00
53908;BME280;40469;47.998;7.794;2022-12-22T13:26:09;98646.00;;;11.37;100.00
53908;BME280;40469;47.998;7.794;2022-12-22T13:28:39;98660.78;;;11.40;100.00
53908;BME280;40469;47.998;7.794;2022-12-22T13:31:12;98663.09;;;11.55;100.00
53908;BME280;40469;47.998;7.794;2022-12-22T13:33:41;98661.53;;;11.45;100.00
53908;BME280;40469;47.998;7.794;2022-12-22T13:36:21;98655.38;;;11.49;100.00
53908;BME280;40469;47.998;7.794;2022-12-22T13:38:59;98650.19;;;11.46;100.00
53908;BME280;40469;47.998;7.794;2022-12-22T13:41:24;98665.00;;;11.47;100.00
53908;BME280;40469;47.998;7.794;2022-12-22T13:44:02;98658.97;;;11.44;100.00
53908;BME280;40469;47.998;7.794;2022-12-22T13:46:36;98676.44;;;11.40;100.00
53908;BME280;40469;47.998;7.794;2022-12-22T13:49:06;98654.78;;;11.33;100.00
53908;BME280;40469;47.998;7.794;2022-12-22T13:51:36;98659.88;;;11.39;100.00
53908;BME280;40469;47.998;7.794;2022-12-22T13:54:11;98646.63;;;11.50;100.00
53908;BME280;40469;47.998;7.794;2022-12-22T13:56:49;98664.81;;;11.56;100.00
53908;BME280;40469;47.998;7.794;2022-12-22T14:01:50;98677.09;;;11.53;100.00
53908;BME280;40469;47.998;7.794;2022-12-22T14:04:20;98664.19;;;11.44;100.00
53908;BME280;40469;47.998;7.794;2022-12-22T14:06:45;98669.53;;;11.36;100.00
53908;BME280;40469;47.998;7.794;2022-12-22T14:09:25;98666.22;;;11.28;100.00
53908;BME280;40469;47.998;7.794;2022-12-22T14:11:55;98670.50;;;11.32;100.00
53908;BME280;40469;47.998;7.794;2022-12-22T14:14:25;98666.25;;;11.25;100.00
53908;BME280;40469;47.998;7.794;2022-12-22T14:16:53;98668.88;;;11.25;100.00
53908;BME280;40469;47.998;7.794;2022-12-22T14:19:20;98677.78;;;11.13;100.00
53908;BME280;40469;47.998;7.794;2022-12-22T14:21:49;98671.06;;;10.98;100.00
53908;BME280;40469;47.998;7.794;2022-12-22T14:24:22;98671.31;;;10.82;100.00
53908;BME280;40469;47.998;7.794;2022-12-22T14:26:51;98662.84;;;10.65;100.00
53908;BME280;40469;47.998;7.794;2022-12-22T14:29:21;98663.78;;;10.61;100.00
53908;BME280;40469;47.998;7.794;2022-12-22T14:31:56;98666.31;;;10.67;100.00
53908;BME280;40469;47.998;7.794;2022-12-22T14:36:52;98682.75;;;10.72;100.00
53908;BME280;40469;47.998;7.794;2022-12-22T14:39:25;98674.91;;;10.75;100.00
53908;BME280;40469;47.998;7.794;2022-12-22T14:42:00;98662.03;;;10.63;100.00
53908;BME280;40469;47.998;7.794;2022-12-22T14:44:32;98665.44;;;10.68;100.00
53908;BME280;40469;47.998;7.794;2022-12-22T14:49:56;98654.84;;;10.77;100.00
53908;BME280;40469;47.998;7.794;2022-12-22T14:52:50;98647.81;;;10.81;100.00
53908;BME280;40469;47.998;7.794;2022-12-22T14:55:40;98643.28;;;10.92;100.00
53908;BME280;40469;47.998;7.794;2022-12-22T15:00:39;98632.53;;;11.11;100.00
53908;BME280;40469;47.998;7.794;2022-12-22T15:03:35;98630.72;;;11.14;100.00
53908;BME280;40469;47.998;7.794;2022-12-22T15:06:41;98629.88;;;11.14;100.00
53908;BME280;40469;47.998;7.794;2022-12-22T15:11:31;98624.97;;;11.44;100.00
53908;BME280;40469;47.998;7.794;2022-12-22T15:13:57;98616.94;;;11.53;100.00
53908;BME280;40469;47.998;7.794;2022-12-22T15:16:23;98633.38;;;11.60;100.00